Latest Weather Observations for Ferny Creek

IDV60901

Issued at 11:11 am EDT Thursday 29 January 2015 (issued every 10 minutes, with the page automatically refreshed every 10 minutes)

About weather observations | Map of Melbourne area stations | Latest observations for Melbourne area | Other Formats
Station Details ID: 086266 Name: FERNY CREEK Lat: -37.87 Lon: 145.35 Height: 512.9 m
Data from the previous 72 hours. | See also: Recent months at Ferny Creek
Date/Time
EDT
Tmp

°C
App
Tmp
°C
Dew
Point
°C
Rel
Hum
%
Delta-T

°C
Wind Press
QNH
hPa
Press
MSL
hPa
Rain
since
9 am
mm
Dir
 
Spd
km/h
Gust
km/h
Spd
kts
Gust
kts
29/11:00am 15.0 12.9 8.3 64 3.5 ESE 9 28 5 15 1020.6 1019.2 0.0
29/10:30am 14.3 11.4 8.3 67 3.1 SE 13 30 7 16 1020.7 1019.3 0.0
29/10:00am 12.8 10.3 6.4 65 3.1 SE 9 20 5 11 1020.7 1019.3 0.0
29/09:30am 13.3 10.7 7.7 69 2.8 SE 11 22 6 12 1020.7 1019.3 0.0
29/09:00am 12.8 9.9 8.1 73 2.4 SE 13 28 7 15 1020.6 1019.2 0.0
29/08:30am 12.3 9.3 7.8 74 2.3 ESE 13 32 7 17 1020.3 1018.9 0.0
29/08:00am 11.8 8.8 7.5 75 2.1 E 13 22 7 12 1020.1 1018.6 0.0
29/07:30am 11.0 7.9 7.3 78 1.8 E 13 24 7 13 1019.9 1018.4 0.0
29/07:00am 9.9 7.2 7.2 83 1.3 ESE 11 26 6 14 1019.6 1018.1 0.0
29/06:30am 9.2 6.5 7.2 87 1.0 E 11 24 6 13 1019.4 1017.9 0.0
29/06:00am 9.1 6.4 7.2 88 0.9 ESE 11 24 6 13 1019.3 1017.8 0.0
29/05:30am 9.2 6.9 7.3 88 0.9 ESE 9 20 5 11 1018.9 1017.4 0.0
29/05:00am 9.2 6.1 7.3 88 0.9 ESE 13 24 7 13 1018.6 1017.2 0.0
29/04:30am 9.5 6.4 7.3 86 1.1 E 13 24 7 13 1018.6 1017.2 0.0
29/04:00am 9.5 6.4 7.4 87 1.0 ESE 13 24 7 13 1018.6 1017.2 0.0
29/03:30am 9.8 6.4 7.6 86 1.1 ESE 15 30 8 16 1018.9 1017.4 0.0
29/03:00am 9.6 6.1 7.4 86 1.1 E 15 24 8 13 1018.9 1017.4 0.0
29/02:30am 9.7 6.3 7.5 86 1.1 E 15 28 8 15 1019.1 1017.6 0.0
29/02:00am 9.9 6.2 7.8 87 1.0 E 17 28 9 15 1019.3 1017.8 0.0
29/01:30am 10.0 6.6 7.8 86 1.1 ESE 15 26 8 14 1019.4 1017.9 0.0
29/01:00am 10.3 6.6 8.1 86 1.1 E 17 30 9 16 1019.5 1018.0 0.0
29/12:30am 10.4 7.0 7.8 84 1.3 E 15 26 8 14 1019.6 1018.1 0.0
29/12:00am 10.6 7.2 7.7 82 1.4 E 15 32 8 17 1019.7 1018.2 0.0
 
Date/Time
EDT
Tmp

°C
App
Tmp
°C
Dew
Point
°C
Rel
Hum
%
Delta-T

°C
Wind Press
QNH
hPa
Press
MSL
hPa
Rain
since
9 am
mm
Dir
 
Spd
km/h
Gust
km/h
Spd
kts
Gust
kts
28/11:30pm 11.0 7.2 7.5 79 1.7 E 17 32 9 17 1019.7 1018.2 0.0
28/11:00pm 11.3 7.8 7.2 76 2.0 E 15 26 8 14 1019.9 1018.4 0.0
28/10:30pm 11.9 8.4 7.0 72 2.4 E 15 24 8 13 1020.0 1018.5 0.0
28/10:00pm 12.4 8.5 6.9 69 2.7 E 17 33 9 18 1019.8 1018.3 0.0
28/09:30pm 12.8 10.0 7.0 68 2.9 ESE 11 22 6 12 1019.8 1018.3 0.0
28/09:00pm 13.6 10.4 6.7 63 3.4 ESE 13 26 7 14 1019.4 1017.9 0.0
28/08:30pm 14.1 10.4 6.5 60 3.8 ESE 15 30 8 16 1019.2 1017.7 0.0
28/08:00pm 15.1 11.4 6.4 56 4.3 E 15 26 8 14 1019.0 1017.5 0.0
28/07:30pm 15.8 11.7 6.3 53 4.7 E 17 39 9 21 1018.9 1017.4 0.0
28/07:00pm 16.4 12.7 6.2 51 5.1 ESE 15 28 8 15 1018.5 1017.0 0.0
28/06:30pm 16.6 13.0 6.7 52 5.0 ESE 15 39 8 21 1018.3 1016.8 0.0
28/06:00pm 17.9 14.3 6.7 48 5.7 ESE 15 30 8 16 1018.2 1016.7 0.0
28/05:30pm 17.3 13.3 6.5 49 5.5 ESE 17 46 9 25 1018.2 1016.7 0.0
28/05:00pm 18.8 15.8 7.6 48 5.8 ESE 13 26 7 14 1018.1 1016.6 0.0
28/04:30pm 19.4 16.9 8.1 48 6.0 ESE 11 19 6 10 1018.1 1016.6 0.0
28/04:00pm 19.4 16.6 8.4 49 5.8 ESE 13 30 7 16 1018.0 1016.5 0.0
28/03:30pm 19.8 16.8 9.4 51 5.7 E 15 28 8 15 1018.2 1016.7 0.0
28/03:00pm 19.1 15.5 8.4 50 5.7 ESE 17 35 9 19 1018.2 1016.7 0.0
28/02:30pm 18.8 15.3 8.7 52 5.4 E 17 41 9 22 1018.3 1016.8 0.0
28/02:00pm 19.4 16.4 9.3 52 5.5 ESE 15 26 8 14 1018.3 1016.8 0.0
28/01:30pm 17.6 14.2 9.0 57 4.6 ESE 17 32 9 17 1018.4 1016.9 0.0
28/01:00pm 18.3 14.4 8.8 54 5.1 E 19 35 10 19 1018.4 1016.9 0.0
28/12:30pm 18.5 15.3 9.8 57 4.7 E 17 32 9 17 1018.3 1016.8 0.0
28/12:00pm 16.4 13.4 9.1 62 3.9 ESE 15 32 8 17 1018.4 1016.9 0.0
28/11:30am 16.2 12.3 8.7 61 3.9 E 19 32 10 17 1018.5 1017.0 0.0
28/11:00am 16.2 13.3 9.6 65 3.5 ESE 15 30 8 16 1018.5 1017.0 0.0
28/10:30am 15.0 11.3 9.4 69 3.0 E 19 37 10 20 1018.4 1016.9 0.0
28/10:00am 15.2 11.2 8.9 66 3.3 E 20 37 11 20 1018.3 1016.8 0.0
28/09:30am 14.1 10.3 8.9 71 2.7 E 19 33 10 18 1018.2 1016.7 0.0
28/09:00am 13.4 9.5 8.5 72 2.5 E 19 37 10 20 1017.8 1016.3 0.0
28/08:30am 12.5 8.3 8.2 75 2.2 ESE 20 32 11 17 1017.5 1016.0 0.0
28/08:00am 11.7 7.7 8.2 79 1.8 E 19 33 10 18 1017.4 1015.9 0.0
28/07:30am 11.2 7.4 7.7 79 1.7 ESE 17 33 9 18 1017.2 1015.7 0.0
28/07:00am 10.6 7.2 7.5 81 1.5 ESE 15 30 8 16 1017.0 1015.5 0.0
28/06:30am 10.0 6.5 7.4 84 1.3 ESE 15 30 8 16 1016.7 1015.2 0.0
28/06:00am 10.3 7.2 7.4 82 1.4 ESE 13 26 7 14 1016.5 1015.0 0.0
28/05:30am 10.6 7.8 6.9 78 1.8 ESE 11 20 6 11 1016.5 1015.0 0.0
28/05:00am 10.7 8.0 7.2 79 1.7 ESE 11 24 6 13 1016.4 1014.9 0.0
28/04:30am 10.4 8.1 7.3 81 1.5 ESE 9 19 5 10 1016.4 1014.9 0.0
28/04:00am 10.3 7.5 7.0 80 1.6 ESE 11 19 6 10 1016.3 1014.8 0.0
28/03:30am 10.0 7.1 6.7 80 1.6 ESE 11 19 6 10 1016.5 1015.0 0.0
28/03:00am 9.4 7.0 7.0 85 1.2 ESE 9 22 5 12 1016.6 1015.1 0.0
28/02:30am 9.6 7.3 7.4 86 1.1 ESE 9 22 5 12 1016.7 1015.2 0.0
28/02:00am 10.2 7.6 7.8 85 1.2 ESE 11 22 6 12 1017.2 1015.7 0.0
28/01:30am 10.0 7.8 7.9 87 1.0 ESE 9 19 5 10 1017.4 1015.9 0.0
28/01:00am 9.9 8.0 7.7 86 1.1 SE 7 17 4 9 1017.6 1016.1 0.0
28/12:30am 10.2 8.0 7.8 85 1.2 ESE 9 19 5 10 1017.8 1016.3 0.0
28/12:00am 10.3 8.0 7.5 83 1.4 ESE 9 17 5 9 1017.9 1016.4 0.0
 
Date/Time
EDT
Tmp

°C
App
Tmp
°C
Dew
Point
°C
Rel
Hum
%
Delta-T

°C
Wind Press
QNH
hPa
Press
MSL
hPa
Rain
since
9 am
mm
Dir
 
Spd
km/h
Gust
km/h
Spd
kts
Gust
kts
27/11:30pm 10.2 8.3 7.6 84 1.3 SE 7 17 4 9 1018.1 1016.6 0.0
27/11:00pm 10.3 8.1 7.7 84 1.3 SE 9 19 5 10 1018.0 1016.5 0.0
27/10:30pm 10.3 8.1 7.7 84 1.3 SE 9 20 5 11 1018.1 1016.6 0.0
27/10:00pm 10.4 8.1 7.6 83 1.4 SE 9 19 5 10 1017.9 1016.4 0.0
27/09:30pm 10.6 8.6 7.1 79 1.7 SE 7 20 4 11 1017.7 1016.2 0.0
27/09:00pm 11.1 9.1 7.0 76 2.0 SE 7 20 4 11 1017.6 1016.1 0.0
27/08:30pm 11.3 9.2 6.6 73 2.3 SSE 7 20 4 11 1017.5 1016.0 0.0
27/08:00pm 12.0 10.1 6.9 71 2.5 ESE 6 17 3 9 1017.2 1015.7 0.0
27/07:30pm 12.4 10.4 7.3 71 2.5 ESE 7 19 4 10 1017.0 1015.5 0.0
27/07:00pm 12.4 9.7 7.3 71 2.5 SE 11 22 6 12 1016.7 1015.2 0.0
27/06:30pm 12.8 10.5 7.5 70 2.7 ESE 9 24 5 13 1016.5 1015.0 0.0
27/06:00pm 13.1 10.8 7.3 68 2.9 ESE 9 20 5 11 1016.4 1014.9 0.0
27/05:30pm 12.9 10.0 6.7 66 3.1 SE 11 30 6 16 1016.5 1015.0 0.0
27/05:00pm 13.2 10.9 7.4 68 2.9 ESE 9 19 5 10 1016.6 1015.1 0.0
27/04:30pm 12.9 10.6 7.6 70 2.7 SE 9 19 5 10 1016.7 1015.2 0.0
27/04:00pm 13.3 11.1 7.7 69 2.8 SE 9 19 5 10 1016.7 1015.2 0.0
27/03:30pm 13.1 10.1 7.8 70 2.7 SE 13 24 7 13 1016.9 1015.3 0.0
27/03:00pm 14.1 11.6 8.1 67 3.1 ESE 11 20 6 11 1016.7 1015.2 0.0
27/02:30pm 14.0 11.9 8.2 68 3.0 SE 9 19 5 10 1016.9 1015.3 0.0
27/02:00pm 14.0 11.8 7.8 66 3.1 ESE 9 19 5 10 1017.0 1015.5 0.0
27/01:30pm 14.4 11.7 7.2 62 3.6 SE 11 19 6 10 1017.1 1015.6 0.0
27/01:00pm 14.2 11.7 8.2 67 3.1 ESE 11 19 6 10 1017.2 1015.7 0.0
27/12:30pm 13.9 11.3 7.7 66 3.1 ESE 11 26 6 14 1017.3 1015.8 0.0
27/12:00pm 14.1 12.3 8.1 67 3.1 ESE 7 15 4 8 1017.4 1015.9 0.0
27/11:30am 13.7 11.3 7.2 65 3.3 SE 9 24 5 13 1017.4 1015.9 0.0
27/11:00am 13.3 11.4 7.7 69 2.8 SE 7 17 4 9 1017.4 1015.9 0.0
27/10:30am 14.4 11.4 7.5 63 3.5 ESE 13 24 7 13 1017.3 1015.8 0.0
27/10:00am 13.4 11.2 8.0 70 2.7 ESE 9 15 5 8 1017.3 1015.8 0.0
27/09:30am 12.4 9.7 7.5 72 2.5 ESE 11 20 6 11 1017.2 1015.7 0.0
27/09:00am 12.1 9.8 7.4 73 2.3 ESE 9 26 5 14 1017.1 1015.6 0.0
27/08:30am 10.2 7.7 6.7 79 1.7 ESE 9 19 5 10 1016.9 1015.3 0.0
27/08:00am 9.6 7.5 6.5 81 1.5 ESE 7 15 4 8 1016.7 1015.2 0.0
27/07:30am 9.4 6.8 6.1 80 1.6 SE 9 17 5 9 1016.3 1014.8 0.0
27/07:00am 9.2 6.9 5.9 80 1.6 ESE 7 15 4 8 1016.1 1014.6 0.0
27/06:30am 9.2 7.1 5.8 79 1.6 ESE 6 13 3 7 1015.9 1014.4 0.0
27/06:00am 9.0 6.4 5.9 81 1.5 ESE 9 22 5 12 1015.7 1014.2 0.0
27/05:30am 9.0 6.4 5.9 81 1.5 ESE 9 19 5 10 1015.6 1014.1 0.0
27/05:00am 8.9 6.2 5.6 80 1.5 ESE 9 20 5 11 1015.5 1014.0 0.0
27/04:30am 9.0 6.3 5.6 79 1.6 ESE 9 17 5 9 1015.6 1014.1 0.0
27/04:00am 9.1 6.4 5.5 78 1.7 ESE 9 22 5 12 1015.7 1014.2 0.0
27/03:30am 9.0 6.2 5.2 77 1.8 ESE 9 20 5 11 1016.0 1014.5 0.0
27/03:00am 9.2 6.4 5.2 76 1.9 ESE 9 22 5 12 1016.0 1014.5 0.0
27/02:30am 9.5 6.7 5.1 74 2.0 ESE 9 20 5 11 1016.2 1014.7 0.0
27/02:00am 9.1 5.9 5.1 76 1.8 ESE 11 19 6 10 1016.6 1015.1 0.0
27/01:30am 9.0 6.2 5.0 76 1.8 ESE 9 20 5 11 1016.9 1015.3 0.0
27/01:00am 9.1 6.6 4.9 75 1.9 ESE 7 22 4 12 1017.1 1015.6 0.0
27/12:30am 9.2 5.9 4.8 74 2.0 ESE 11 17 6 9 1017.3 1015.8 0.0
27/12:00am 9.2 5.6 5.0 75 1.9 ESE 13 32 7 17 1017.4 1015.9 0.0
 
Date/Time
EDT
Tmp

°C
App
Tmp
°C
Dew
Point
°C
Rel
Hum
%
Delta-T

°C
Wind Press
QNH
hPa
Press
MSL
hPa
Rain
since
9 am
mm
Dir
 
Spd
km/h
Gust
km/h
Spd
kts
Gust
kts
26/11:30pm 9.4 6.3 5.4 76 1.9 ESE 11 20 6 11 1017.4 1015.9 0.0
26/11:00pm 9.4 6.2 5.2 75 1.9 ESE 11 26 6 14 1017.5 1016.0 0.0
26/10:30pm 9.5 6.3 5.1 74 2.0 ESE 11 20 6 11 1017.7 1016.2 0.0
26/10:00pm 9.7 6.5 5.1 73 2.1 SE 11 22 6 12 1017.6 1016.1 0.0
26/09:30pm 10.2 7.4 5.2 71 2.3 ESE 9 28 5 15 1017.4 1015.9 0.0
26/09:00pm 10.4 7.7 5.4 71 2.4 ESE 9 24 5 13 1017.2 1015.7 0.0
26/08:30pm 10.9 8.0 4.6 65 2.9 SE 9 19 5 10 1017.1 1015.6 0.0
26/08:00pm 11.4 8.5 4.4 62 3.2 SE 9 20 5 11 1016.9 1015.3 0.0
26/07:30pm 11.8 8.8 4.3 60 3.5 SE 9 22 5 12 1016.4 1014.9 0.0
26/07:00pm 12.1 9.2 4.8 61 3.4 SE 9 19 5 10 1016.2 1014.7 0.0
26/06:30pm 12.8 10.2 5.9 63 3.3 SE 9 28 5 15 1016.0 1014.5 0.0
26/06:00pm 12.6 10.0 6.0 64 3.2 SE 9 22 5 12 1015.9 1014.4 0.0
26/05:30pm 14.0 11.8 6.4 60 3.8 SE 7 17 4 9 1016.0 1014.5 0.0
26/05:00pm 13.8 11.5 5.9 59 3.9 SE 7 15 4 8 1016.3 1014.8 0.0
26/04:30pm 14.7 12.4 5.5 54 4.5 S 7 19 4 10 1016.2 1014.7 0.0
26/04:00pm 15.3 13.2 6.6 56 4.4 SE 7 17 4 9 1016.2 1014.7 0.0
26/03:30pm 15.1 13.1 6.1 55 4.5 SSE 6 17 3 9 1016.2 1014.7 0.0
26/03:00pm 14.8 12.5 5.9 55 4.4 SE 7 13 4 7 1016.2 1014.7 0.0
26/02:30pm 14.9 12.7 6.0 55 4.4 SE 7 17 4 9 1016.3 1014.8 0.0
26/02:00pm 14.1 11.8 4.9 54 4.4 ESE 6 11 3 6 1016.5 1015.0 0.0
26/01:30pm 13.6 11.3 5.7 59 3.8 SSE 7 13 4 7 1016.7 1015.2 0.0
26/01:00pm 13.4 11.3 6.5 63 3.4 SE 7 19 4 10 1016.9 1015.3 0.0
26/12:30pm 13.7 11.6 6.8 63 3.4 S 7 20 4 11 1016.7 1015.2 0.0
26/12:00pm 12.9 11.3 6.3 64 3.2 SW 4 11 2 6 1016.9 1015.3 0.0
26/11:30am 13.0 11.2 7.0 67 3.0 SSW 6 11 3 6 1017.0 1015.5 0.0

Latest Capital City Observations: Canberra | Sydney | Melbourne | Brisbane | Adelaide | Perth | Hobart | Darwin

Other Formats:

Comma delimited format used in spreadsheet applications
http://www.bom.gov.au/fwo/IDV60901/IDV60901.94872.axf

JavaScript Object Notation format (JSON) in row-major order
http://www.bom.gov.au/fwo/IDV60901/IDV60901.94872.json